Time;durP1;ratioP1;P1;durP2;ratioP2;P2;SDS_P1;SDS_P2;PMS_P1;PMS_P2;Temp;Humidity;BMP_temperature;BMP_pressure;BME280_temperature;BME280_humidity;BME280_pressure;Samples;Min_cycle;Max_cycle;Signal;HPM_P1;HPM_P2
2022/08/20 00:00:55;;;;;;;8.95;8.05;;;;;;;26.74;56.91;100513.47;2311017;76;51529;-72
2022/08/20 00:03:57;;;;;;;12.58;8.83;;;;;;;26.71;56.85;100531.89;2316484;76;51482;-72
2022/08/20 00:07:00;;;;;;;8.75;7.95;;;;;;;26.73;56.80;100536.27;2266573;76;51135;-71
2022/08/20 00:10:02;;;;;;;9.08;8.10;;;;;;;26.74;56.67;100541.98;2266756;76;50979;-69
2022/08/20 00:13:06;;;;;;;8.80;8.00;;;;;;;26.74;56.58;100548.77;2316474;76;51550;-69
2022/08/20 00:16:09;;;;;;;9.18;8.35;;;;;;;26.74;56.53;100552.30;2316388;76;51596;-70
2022/08/20 00:19:11;;;;;;;8.88;8.05;;;;;;;26.74;56.50;100552.30;2291866;76;50115;-71
2022/08/20 00:22:13;;;;;;;8.83;8.03;;;;;;;26.75;56.49;100553.96;2292401;76;50449;-70
2022/08/20 00:25:16;;;;;;;9.15;7.87;;;;;;;26.74;56.40;100556.36;2315515;76;51493;-70
2022/08/20 00:28:18;;;;;;;10.98;8.78;;;;;;;26.74;56.34;100555.01;2298699;75;51453;-70
2022/08/20 00:31:21;;;;;;;9.58;7.70;;;;;;;26.74;56.36;100558.27;2310768;76;51541;-71
2022/08/20 00:34:23;;;;;;;10.78;8.08;;;;;;;26.75;56.39;100557.22;2292108;76;52620;-69
2022/08/20 00:37:26;;;;;;;9.18;8.18;;;;;;;26.75;56.33;100558.58;2266304;75;50667;-69
2022/08/20 00:40:37;;;;;;;8.80;8.00;;;;;;;26.77;56.33;100553.70;2292234;76;51499;-69
2022/08/20 00:43:42;;;;;;;9.25;8.33;;;;;;;26.75;56.26;100550.43;2292306;76;52679;-71
2022/08/20 00:46:44;;;;;;;8.60;7.80;;;;;;;26.77;56.23;100555.06;2316669;76;50690;-70
2022/08/20 00:49:47;;;;;;;9.25;8.40;;;;;;;26.76;56.17;100550.17;2316499;76;50428;-70
2022/08/20 00:52:50;;;;;;;9.30;8.40;;;;;;;26.75;56.18;100553.96;2292340;76;50738;-70
2022/08/20 00:55:52;;;;;;;9.40;8.28;;;;;;;26.77;56.18;100553.70;2316291;76;51540;-70
2022/08/20 00:58:54;;;;;;;9.18;8.33;;;;;;;26.77;56.11;100553.70;2261324;76;51015;-71
2022/08/20 01:01:57;;;;;;;8.85;7.85;;;;;;;26.76;56.09;100558.31;2300401;76;51482;-70
2022/08/20 01:04:59;;;;;;;9.75;8.75;;;;;;;26.76;56.10;100556.14;2316458;76;50752;-70
2022/08/20 01:08:02;;;;;;;8.85;7.97;;;;;;;26.76;56.11;100554.78;2316010;76;51590;-70
2022/08/20 01:11:09;;;;;;;9.05;8.20;;;;;;;26.77;56.11;100565.92;2316355;76;50734;-70
2022/08/20 01:17:35;;;;;;;9.15;8.25;;;;;;;26.76;56.11;100560.21;2316407;76;22410;-72
2022/08/20 01:20:39;;;;;;;10.38;8.28;;;;;;;26.77;56.15;100560.49;2316472;76;51618;-70
2022/08/20 01:24:05;;;;;;;9.58;8.68;;;;;;;26.76;56.15;100561.57;2316460;76;51730;-70
2022/08/20 01:27:08;;;;;;;12.05;8.33;;;;;;;26.78;56.08;100564.88;2320381;75;51722;-71
2022/08/20 01:30:10;;;;;;;8.95;8.05;;;;;;;26.77;56.17;100564.56;2308777;76;50798;-71
2022/08/20 01:33:12;;;;;;;8.63;7.92;;;;;;;26.77;56.21;100561.84;2244902;78;50981;-72
2022/08/20 01:36:15;;;;;;;9.15;8.25;;;;;;;26.76;56.25;100562.39;2273771;77;51595;-72
2022/08/20 01:39:23;;;;;;;9.30;8.40;;;;;;;26.77;56.27;100560.49;2274002;77;50269;-72
2022/08/20 01:42:31;;;;;;;8.43;7.62;;;;;;;26.77;56.24;100561.84;2243613;78;50469;-73
2022/08/20 01:45:35;;;;;;;8.80;8.00;;;;;;;26.76;56.19;100562.39;2300113;77;51580;-72
2022/08/20 01:48:38;;;;;;;9.23;8.33;;;;;;;26.78;56.14;100566.23;2271428;77;50304;-71
2022/08/20 01:51:40;;;;;;;8.55;7.75;;;;;;;26.76;56.22;100564.28;2271344;76;50364;-71
2022/08/20 01:54:42;;;;;;;9.30;8.50;;;;;;;26.77;56.19;100564.56;2302304;77;50230;-71
2022/08/20 01:57:44;;;;;;;8.40;7.60;;;;;;;26.74;56.22;100560.44;2255058;77;49650;-72
2022/08/20 02:00:47;;;;;;;8.65;7.85;;;;;;;26.75;56.17;100567.53;2310749;77;50723;-72
2022/08/20 02:03:49;;;;;;;8.78;7.75;;;;;;;26.76;56.17;100569.17;2242538;77;51119;-72
2022/08/20 02:06:56;;;;;;;8.08;7.37;;;;;;;26.76;56.16;100568.36;2278711;77;51454;-72
2022/08/20 02:09:59;;;;;;;8.05;7.28;;;;;;;26.77;56.09;100569.99;2310340;77;51612;-72
2022/08/20 02:13:01;;;;;;;8.15;7.35;;;;;;;26.75;56.10;100577.04;2310390;77;50441;-71
2022/08/20 02:16:04;;;;;;;7.92;7.22;;;;;;;26.77;56.07;100572.70;2254238;77;50478;-71
2022/08/20 02:19:12;;;;;;;7.65;6.95;;;;;;;26.77;55.99;100572.70;2279241;77;50330;-70
2022/08/20 02:22:29;;;;;;;8.00;7.30;;;;;;;26.75;56.02;100578.39;2276342;76;49643;-71
2022/08/20 02:25:32;;;;;;;8.03;7.33;;;;;;;26.75;55.98;100587.08;2255328;76;53054;-71
2022/08/20 02:28:35;;;;;;;8.73;7.05;;;;;;;26.75;55.96;100589.25;2335159;74;51572;-71
2022/08/20 02:31:37;;;;;;;7.83;7.12;;;;;;;26.78;55.91;100590.13;2296127;76;50133;-71
2022/08/20 02:34:39;;;;;;;8.18;6.62;;;;;;;26.79;55.91;100596.37;2341719;76;50765;-71
2022/08/20 02:37:42;;;;;;;8.75;7.05;;;;;;;26.79;55.87;100599.91;2269393;74;49635;-71
2022/08/20 02:40:45;;;;;;;7.47;6.87;;;;;;;26.79;55.83;100597.73;2321940;76;50756;-71
2022/08/20 02:43:50;;;;;;;7.50;6.80;;;;;;;26.79;55.81;100600.45;2333410;75;50287;-72
2022/08/20 02:46:52;;;;;;;7.07;6.47;;;;;;;26.66;55.64;100584.70;2283700;76;51026;-71
2022/08/20 02:49:55;;;;;;;7.30;6.70;;;;;;;26.66;55.64;100584.70;2321827;76;50188;-72
2022/08/20 02:52:57;;;;;;;7.47;6.83;;;;;;;26.78;55.71;100594.73;2341854;75;50658;-71
2022/08/20 02:55:59;;;;;;;6.70;6.10;;;;;;;26.79;55.68;100601.80;2295868;76;51860;-71
2022/08/20 02:59:02;;;;;;;7.70;5.65;;;;;;;26.78;55.67;100602.34;2329506;76;51557;-71
2022/08/20 03:02:04;;;;;;;7.20;6.55;;;;;;;26.78;55.64;100596.91;2252088;76;50222;-71
2022/08/20 03:05:06;;;;;;;6.37;5.85;;;;;;;26.79;55.63;100590.94;2266178;76;50328;-71
2022/08/20 03:08:10;;;;;;;6.17;5.65;;;;;;;26.80;55.55;100581.75;2266239;76;50158;-71
2022/08/20 03:11:12;;;;;;;7.03;6.33;;;;;;;26.79;55.58;100581.44;2266123;76;51742;-72
2022/08/20 03:14:14;;;;;;;7.62;6.42;;;;;;;26.78;55.53;100571.66;2291308;76;51477;-71
2022/08/20 03:17:16;;;;;;;7.33;6.10;;;;;;;26.79;55.52;100565.16;2291083;76;50678;-71
2022/08/20 03:20:18;;;;;;;6.40;5.90;;;;;;;26.79;55.54;100574.11;2291447;76;51452;-72
2022/08/20 03:23:21;;;;;;;7.95;6.05;;;;;;;26.79;55.49;100577.37;2291319;76;50350;-70
2022/08/20 03:26:23;;;;;;;7.42;6.03;;;;;;;26.79;55.52;100574.66;2247934;76;49634;-71
2022/08/20 03:29:25;;;;;;;7.42;6.72;;;;;;;26.79;55.49;100576.02;2306193;76;50417;-72
2022/08/20 03:32:27;;;;;;;6.92;6.22;;;;;;;26.80;55.47;100570.89;2305471;76;50787;-70
2022/08/20 03:35:30;;;;;;;6.75;6.05;;;;;;;26.80;55.44;100569.54;2274725;76;51028;-71
2022/08/20 03:38:33;;;;;;;9.43;5.67;;;;;;;26.79;55.46;100567.88;2318080;75;51635;-70
2022/08/20 03:41:35;;;;;;;6.90;6.20;;;;;;;26.79;55.44;100567.88;2295399;76;51447;-70
2022/08/20 03:44:37;;;;;;;6.80;6.15;;;;;;;26.79;55.48;100564.62;2292287;76;51507;-70
2022/08/20 03:47:40;;;;;;;7.00;6.40;;;;;;;26.79;55.49;100565.16;2291951;76;52172;-70
2022/08/20 03:50:43;;;;;;;9.15;6.83;;;;;;;26.78;55.49;100566.23;2296868;76;50189;-70
2022/08/20 03:53:45;;;;;;;8.35;6.62;;;;;;;26.78;55.47;100568.95;2297754;76;50391;-70
2022/08/20 03:56:47;;;;;;;8.48;7.58;;;;;;;26.78;55.39;100572.48;2251209;76;49785;-70
2022/08/20 03:59:50;;;;;;;8.28;7.03;;;;;;;26.78;55.35;100568.95;2278250;76;50902;-70
2022/08/20 04:02:52;;;;;;;7.28;6.60;;;;;;;26.78;55.38;100570.30;2307450;76;51542;-70
2022/08/20 04:05:54;;;;;;;8.25;7.25;;;;;;;26.78;55.40;100571.12;2291636;76;50367;-70
2022/08/20 04:08:57;;;;;;;7.55;6.78;;;;;;;26.78;55.34;100575.73;2292285;76;50468;-69
2022/08/20 04:11:59;;;;;;;8.10;7.30;;;;;;;26.78;55.32;100575.20;2316699;76;50708;-69
2022/08/20 04:15:01;;;;;;;8.35;7.37;;;;;;;26.77;55.31;100581.70;2291837;76;49858;-70
2022/08/20 04:18:06;;;;;;;9.20;7.28;;;;;;;26.78;55.30;100583.88;2316340;75;50321;-70
2022/08/20 04:21:08;;;;;;;8.53;7.73;;;;;;;26.78;55.30;100592.02;2292879;76;51602;-70
2022/08/20 04:24:12;;;;;;;8.93;8.03;;;;;;;26.78;55.29;100596.91;2264141;77;49984;-71
2022/08/20 04:27:14;;;;;;;8.93;8.03;;;;;;;26.77;55.29;100590.35;2304148;74;51572;-70
2022/08/20 04:30:18;;;;;;;9.10;7.70;;;;;;;26.78;55.21;100588.77;2295924;76;51525;-70
2022/08/20 04:33:20;;;;;;;8.75;7.45;;;;;;;26.77;55.18;100582.20;2282948;76;51188;-70
2022/08/20 04:36:23;;;;;;;8.68;7.30;;;;;;;26.77;55.24;100583.06;2295856;76;50173;-71
2022/08/20 04:39:25;;;;;;;8.25;7.50;;;;;;;26.77;55.28;100580.85;2341724;76;51529;-70
2022/08/20 04:42:28;;;;;;;8.40;7.47;;;;;;;26.77;55.25;100574.06;2270615;76;51519;-70
2022/08/20 04:45:30;;;;;;;8.60;7.80;;;;;;;26.77;55.28;100579.49;2288259;76;51557;-71
2022/08/20 04:48:33;;;;;;;7.47;6.85;;;;;;;26.79;55.18;100582.80;2302142;77;51624;-71
2022/08/20 04:51:35;;;;;;;7.75;6.95;;;;;;;26.78;55.23;100585.23;2301009;75;50354;-71
2022/08/20 04:54:38;;;;;;;9.03;7.20;;;;;;;26.78;55.20;100587.95;2336095;76;51500;-70
2022/08/20 04:57:40;;;;;;;7.83;7.12;;;;;;;26.78;55.21;100590.13;2308433;76;52638;-70
2022/08/20 05:00:47;;;;;;;7.85;7.15;;;;;;;26.77;55.22;100599.85;2317304;76;50482;-70
2022/08/20 05:03:50;;;;;;;8.35;7.50;;;;;;;26.78;55.10;100598.27;2340503;75;50144;-70
2022/08/20 05:06:52;;;;;;;8.05;7.25;;;;;;;26.79;55.11;100604.52;2264894;77;51049;-71
2022/08/20 05:09:54;;;;;;;8.18;7.28;;;;;;;26.80;55.09;100604.83;2302252;77;51602;-69
2022/08/20 05:12:56;;;;;;;8.30;7.50;;;;;;;26.79;55.02;100608.59;2283260;77;51538;-72
2022/08/20 05:16:00;;;;;;;8.40;7.55;;;;;;;26.78;55.08;100609.13;2283041;77;50603;-71
2022/08/20 05:19:03;;;;;;;8.18;7.40;;;;;;;26.78;55.07;100613.73;2258634;77;51532;-71
2022/08/20 05:22:05;;;;;;;10.18;8.48;;;;;;;26.76;54.90;100614.50;2296510;76;51502;-70
2022/08/20 05:25:08;;;;;;;13.48;8.20;;;;;;;26.75;54.72;100606.08;2283306;77;51396;-71
2022/08/20 05:28:13;;;;;;;10.23;8.63;;;;;;;26.76;54.62;100606.36;2265196;76;51609;-72
2022/08/20 05:31:15;;;;;;;9.73;8.73;;;;;;;26.74;54.55;100607.13;2247333;77;51122;-71
2022/08/20 05:34:17;;;;;;;17.00;13.20;;;;;;;26.74;54.45;100607.13;2287339;76;50503;-72
2022/08/20 05:37:19;;;;;;;19.25;17.25;;;;;;;26.62;54.93;100611.23;2333239;76;49994;-72
2022/08/20 05:40:21;;;;;;;16.23;13.55;;;;;;;26.48;55.43;100617.38;2311602;76;51584;-72
2022/08/20 05:43:24;;;;;;;19.48;16.67;;;;;;;26.34;55.70;100614.09;2310223;76;51511;-72
2022/08/20 05:46:26;;;;;;;19.80;15.00;;;;;;;26.26;56.06;100616.63;2290583;76;50976;-72
2022/08/20 05:49:28;;;;;;;18.65;16.67;;;;;;;26.18;56.31;100620.23;2333647;76;51496;-73
2022/08/20 05:52:30;;;;;;;17.67;15.30;;;;;;;26.14;56.38;100619.85;2311929;76;51482;-71
2022/08/20 05:55:32;;;;;;;17.30;15.30;;;;;;;26.11;56.21;100620.33;2308742;76;51517;-72
2022/08/20 05:58:35;;;;;;;19.87;16.97;;;;;;;25.94;56.99;100624.77;2321124;75;50803;-72
2022/08/20 06:01:37;;;;;;;20.27;16.75;;;;;;;25.77;57.59;100624.06;2331892;76;50603;-72
2022/08/20 06:04:40;;;;;;;17.77;15.40;;;;;;;25.62;57.97;100623.67;2331956;76;51477;-74
2022/08/20 06:07:42;;;;;;;18.32;15.72;;;;;;;25.73;57.53;100628.28;2268616;76;50424;-73
2022/08/20 06:10:45;;;;;;;20.10;14.45;;;;;;;25.76;57.58;100640.02;2282937;76;51047;-73
2022/08/20 06:13:47;;;;;;;18.48;15.20;;;;;;;25.80;57.39;100641.22;2298206;76;50610;-72
2022/08/20 06:16:49;;;;;;;18.32;14.70;;;;;;;25.76;57.29;100651.39;2331795;76;50742;-72
2022/08/20 06:19:51;;;;;;;14.90;13.43;;;;;;;25.73;57.41;100641.84;2301835;76;51019;-72
2022/08/20 06:22:54;;;;;;;16.17;13.83;;;;;;;25.77;57.09;100644.39;2298135;76;50391;-74
2022/08/20 06:25:56;;;;;;;16.45;14.13;;;;;;;25.83;56.99;100635.86;2331995;76;50766;-74
2022/08/20 06:28:59;;;;;;;16.17;13.95;;;;;;;25.78;57.09;100635.19;2298250;76;51547;-74
2022/08/20 06:32:01;;;;;;;16.80;14.50;;;;;;;25.77;56.77;100644.39;2303011;76;50599;-74
2022/08/20 06:35:05;;;;;;;16.23;13.15;;;;;;;25.74;57.14;100642.66;2303437;76;50796;-73
2022/08/20 06:38:09;;;;;;;14.87;13.22;;;;;;;25.75;56.88;100649.22;2321916;76;50608;-73
2022/08/20 06:41:11;;;;;;;17.05;15.25;;;;;;;25.76;56.78;100653.56;2322178;76;50286;-73
2022/08/20 06:44:13;;;;;;;15.90;13.70;;;;;;;25.73;56.84;100648.61;2322250;76;49563;-72
2022/08/20 06:47:17;;;;;;;15.70;13.90;;;;;;;25.67;56.97;100655.50;2319191;76;51862;-72
2022/08/20 06:50:22;;;;;;;21.05;13.95;;;;;;;25.63;57.18;100650.52;2328722;76;51641;-71
2022/08/20 06:53:24;;;;;;;19.75;16.27;;;;;;;25.68;57.16;100655.78;2283670;77;51550;-72
2022/08/20 06:56:27;;;;;;;15.18;13.22;;;;;;;25.57;57.68;100662.82;2297716;76;50749;-73
2022/08/20 06:59:29;;;;;;;18.12;14.90;;;;;;;25.58;57.51;100650.37;2270980;76;52644;-72
2022/08/20 07:02:32;;;;;;;17.00;14.00;;;;;;;25.53;57.73;100658.91;2321979;76;51586;-73
2022/08/20 07:05:37;;;;;;;20.62;14.47;;;;;;;25.51;57.85;100651.52;2341789;76;50271;-73
2022/08/20 07:08:39;;;;;;;22.55;16.93;;;;;;;25.53;57.75;100657.55;2279306;76;49614;-73
2022/08/20 07:11:41;;;;;;;19.20;17.10;;;;;;;25.48;58.12;100659.58;2321965;76;51559;-72
2022/08/20 07:14:44;;;;;;;20.25;15.90;;;;;;;25.50;58.13;100669.67;2321965;76;50334;-72
2022/08/20 07:17:54;;;;;;;25.62;16.95;;;;;;;25.51;57.99;100677.27;2321712;76;50412;-72
2022/08/20 07:20:57;;;;;;;30.08;18.35;;;;;;;25.56;57.88;100678.76;2321968;76;50596;-72
2022/08/20 07:23:58;;;;;;;23.87;17.35;;;;;;;;;;2290019;76;50098;-73
2022/08/20 07:27:01;;;;;;;25.92;16.50;;;;;;;25.49;58.33;100687.53;2308990;76;50388;-73
2022/08/20 07:33:25;;;;;;;29.35;19.45;;;;;;;25.49;58.20;100694.30;2314680;76;24368;-74
2022/08/20 07:36:28;;;;;;;21.33;18.90;;;;;;;25.43;58.35;100700.08;2277325;76;50029;-73
2022/08/20 07:39:30;;;;;;;22.37;18.82;;;;;;;25.39;58.38;100705.13;2296139;76;50513;-73
2022/08/20 07:42:32;;;;;;;24.05;19.73;;;;;;;25.32;58.57;100703.02;2265934;76;51104;-73
2022/08/20 07:45:34;;;;;;;24.25;20.62;;;;;;;25.38;58.54;100703.49;2292580;76;51557;-73
2022/08/20 07:48:40;;;;;;;24.00;19.75;;;;;;;25.25;58.86;100698.20;2329770;76;50439;-75
2022/08/20 07:51:42;;;;;;;20.57;16.75;;;;;;;25.19;58.92;100701.83;2296668;76;50790;-72
2022/08/20 07:54:44;;;;;;;21.05;16.48;;;;;;;25.24;58.51;100706.05;2330126;76;51577;-73
2022/08/20 07:57:48;;;;;;;24.80;19.70;;;;;;;25.32;58.38;100704.38;2295942;76;50994;-73
2022/08/20 08:00:51;;;;;;;21.17;16.97;;;;;;;25.30;58.88;100703.77;2277631;77;51554;-73
2022/08/20 08:03:53;;;;;;;23.25;19.00;;;;;;;25.34;58.57;100699.57;2284508;76;50370;-75
2022/08/20 08:06:58;;;;;;;25.55;18.98;;;;;;;25.40;58.66;100690.52;2244956;78;50951;-73
2022/08/20 08:10:00;;;;;;;22.00;17.23;;;;;;;25.40;58.64;100694.59;2308399;76;22406;-73
2022/08/20 08:13:04;;;;;;;22.55;19.60;;;;;;;25.41;58.60;100704.39;2297400;76;51622;-73
2022/08/20 08:16:08;;;;;;;24.60;19.97;;;;;;;25.37;59.12;100709.95;2302210;76;52367;-73
2022/08/20 08:19:10;;;;;;;21.35;18.12;;;;;;;25.37;59.12;100709.95;2317052;76;50400;-74
2022/08/20 08:22:15;;;;;;;22.45;18.40;;;;;;;25.36;59.06;100714.25;2291796;76;49408;-74
2022/08/20 08:25:17;;;;;;;23.27;19.60;;;;;;;25.34;59.07;100717.17;2316817;76;51556;-74
2022/08/20 08:28:20;;;;;;;23.62;19.05;;;;;;;25.35;59.47;100718.00;2287975;76;51541;-75
2022/08/20 08:31:24;;;;;;;24.23;18.20;;;;;;;25.35;59.46;100723.41;2232997;77;49579;-75
2022/08/20 08:34:26;;;;;;;23.55;18.92;;;;;;;25.39;59.30;100719.21;2312686;77;50858;-76
2022/08/20 08:37:28;;;;;;;23.12;18.95;;;;;;;25.38;59.64;100725.66;2281056;77;51587;-75
2022/08/20 08:40:31;;;;;;;26.23;22.15;;;;;;;25.41;59.39;100726.05;2256471;77;50402;-73
2022/08/20 08:43:33;;;;;;;30.48;22.90;;;;;;;25.44;59.71;100726.13;2316432;76;51690;-74
2022/08/20 08:46:43;;;;;;;28.25;21.97;;;;;;;25.30;60.33;100726.80;2295003;76;51025;-73
2022/08/20 08:49:46;;;;;;;26.00;21.97;;;;;;;25.31;60.14;100726.30;2330106;76;50394;-73
2022/08/20 08:52:52;;;;;;;27.27;20.73;;;;;;;25.29;59.92;100725.69;2330350;76;50442;-73
2022/08/20 08:55:54;;;;;;;22.13;18.57;;;;;;;25.37;59.69;100732.97;2308097;76;49692;-73
2022/08/20 08:59:03;;;;;;;22.27;18.98;;;;;;;25.42;59.59;100730.94;2330111;76;50817;-73
2022/08/20 09:02:05;;;;;;;19.50;17.25;;;;;;;25.46;59.37;100736.72;2319456;76;51521;-74
2022/08/20 09:05:13;;;;;;;25.45;18.35;;;;;;;25.47;59.29;100735.69;2304206;76;50777;-74
2022/08/20 09:08:18;;;;;;;22.30;17.98;;;;;;;25.45;59.32;100738.61;2329807;75;50767;-74
2022/08/20 09:11:21;;;;;;;24.20;17.90;;;;;;;25.48;59.19;100738.15;2330421;76;51520;-74
2022/08/20 09:14:24;;;;;;;21.10;16.55;;;;;;;25.50;59.05;100735.23;2319504;76;50389;-74
2022/08/20 09:17:27;;;;;;;19.67;16.62;;;;;;;25.50;59.03;100744.17;2291625;77;51642;-73
2022/08/20 09:20:29;;;;;;;16.90;15.18;;;;;;;25.53;58.93;100745.60;2250870;76;52506;-73
2022/08/20 09:23:32;;;;;;;18.90;16.10;;;;;;;25.55;58.87;100747.56;2317021;76;50207;-75
2022/08/20 09:26:34;;;;;;;21.27;17.73;;;;;;;25.58;58.81;100756.59;2329890;75;50367;-74
2022/08/20 09:29:36;;;;;;;23.10;19.42;;;;;;;25.58;58.79;100752.52;2332205;74;50335;-74
2022/08/20 09:32:38;;;;;;;23.67;17.37;;;;;;;25.60;58.79;100751.77;2322194;76;50277;-74
2022/08/20 09:35:43;;;;;;;16.60;14.43;;;;;;;25.60;58.70;100751.77;2309093;76;49587;-73
2022/08/20 09:38:45;;;;;;;19.70;16.27;;;;;;;25.61;58.67;100754.77;2328064;75;22250;-75
2022/08/20 09:41:47;;;;;;;20.27;15.53;;;;;;;25.64;58.67;100759.77;2302801;76;51493;-75
2022/08/20 09:44:49;;;;;;;21.93;17.48;;;;;;;25.63;58.68;100758.09;2252311;76;51434;-74
2022/08/20 09:47:51;;;;;;;20.27;16.23;;;;;;;25.66;58.63;100754.09;2310213;76;51448;-73
2022/08/20 09:50:53;;;;;;;17.65;15.35;;;;;;;25.66;58.58;100751.39;2283615;77;51600;-74
2022/08/20 09:53:56;;;;;;;18.30;16.07;;;;;;;25.66;58.53;100749.50;2302868;77;50410;-73
2022/08/20 09:56:58;;;;;;;17.73;15.72;;;;;;;25.66;58.52;100746.78;2302636;77;50201;-74
2022/08/20 10:00:03;;;;;;;18.07;15.88;;;;;;;25.68;58.44;100754.17;2283473;77;52813;-75
2022/08/20 10:03:05;;;;;;;17.60;15.20;;;;;;;25.69;58.38;100758.55;2302993;77;50270;-75
2022/08/20 10:06:07;;;;;;;16.67;14.07;;;;;;;25.69;58.35;100750.42;2258072;77;50655;-75
2022/08/20 10:09:09;;;;;;;18.82;16.40;;;;;;;25.70;58.28;100748.00;2258195;77;50989;-75
2022/08/20 10:12:12;;;;;;;22.25;16.70;;;;;;;25.75;58.31;100754.09;2283507;77;50530;-75
2022/08/20 10:15:14;;;;;;;23.80;18.27;;;;;;;25.69;58.30;100753.13;2296389;76;51514;-75
2022/08/20 10:18:16;;;;;;;17.70;15.80;;;;;;;25.70;58.22;100748.00;2294080;76;50361;-75
2022/08/20 10:21:18;;;;;;;16.12;14.10;;;;;;;25.65;58.19;100746.50;2322193;76;50731;-76
2022/08/20 10:24:21;;;;;;;15.10;13.60;;;;;;;25.65;58.08;100749.20;2322116;76;52634;-75
2022/08/20 10:27:23;;;;;;;16.75;14.40;;;;;;;25.67;58.09;100755.77;2296047;76;50389;-75
2022/08/20 10:30:25;;;;;;;15.65;13.72;;;;;;;25.72;57.91;100751.84;2318172;75;50628;-75
2022/08/20 10:33:27;;;;;;;17.52;15.25;;;;;;;25.70;57.85;100753.42;2322135;76;49567;-75
2022/08/20 10:36:30;;;;;;;16.73;13.35;;;;;;;25.72;57.81;100753.20;2317958;75;51547;-75
2022/08/20 10:39:32;;;;;;;16.75;12.70;;;;;;;25.72;57.72;100748.61;2316875;74;51515;-75
2022/08/20 10:42:34;;;;;;;15.03;11.00;;;;;;;25.75;57.67;100748.14;2291052;75;51498;-75
2022/08/20 10:45:36;;;;;;;14.93;11.28;;;;;;;25.77;57.60;100752.81;2325021;74;50293;-75
2022/08/20 10:48:38;;;;;;;13.95;11.68;;;;;;;25.77;57.51;100751.45;2304203;75;50759;-76
2022/08/20 10:51:41;;;;;;;16.27;14.20;;;;;;;25.79;57.43;100754.77;2232649;77;52665;-75
2022/08/20 10:54:43;;;;;;;20.43;16.32;;;;;;;25.80;57.11;100756.41;2302600;77;51419;-75
2022/08/20 10:57:45;;;;;;;18.20;14.38;;;;;;;25.74;56.87;100757.34;2256719;76;50904;-76
2022/08/20 11:00:47;;;;;;;17.00;14.33;;;;;;;25.67;56.97;100764.72;2282030;77;51565;-75
2022/08/20 11:03:49;;;;;;;18.40;14.18;;;;;;;25.63;57.06;100767.57;2290803;76;51561;-75
2022/08/20 11:06:52;;;;;;;17.48;11.85;;;;;;;25.65;56.79;100766.83;2284798;76;50477;-75
2022/08/20 11:09:54;;;;;;;13.13;11.78;;;;;;;25.57;56.96;100771.20;2321988;76;50331;-75
2022/08/20 11:12:56;;;;;;;14.70;10.38;;;;;;;25.60;56.86;100762.61;2320534;76;50244;-76
2022/08/20 11:15:58;;;;;;;12.70;9.33;;;;;;;25.64;56.76;100768.72;2318440;76;50624;-75
2022/08/20 11:19:01;;;;;;;12.93;9.40;;;;;;;25.67;56.81;100770.67;2315600;74;51536;-76
2022/08/20 11:22:03;;;;;;;10.30;9.00;;;;;;;25.68;56.96;100772.31;2263624;77;50981;-75
2022/08/20 11:25:05;;;;;;;17.65;8.53;;;;;;;25.70;56.92;100775.09;2277644;77;51558;-76
2022/08/20 11:28:08;;;;;;;12.43;8.93;;;;;;;25.71;57.18;100774.03;2283133;76;50427;-76
2022/08/20 11:31:10;;;;;;;12.33;8.33;;;;;;;25.73;57.19;100775.17;2304669;77;50441;-76
2022/08/20 11:34:12;;;;;;;18.77;8.45;;;;;;;25.74;57.17;100772.75;2290248;76;50217;-76
2022/08/20 11:37:15;;;;;;;14.10;8.08;;;;;;;25.80;56.94;100779.98;2271683;76;51223;-75
2022/08/20 11:40:17;;;;;;;10.03;7.45;;;;;;;25.81;56.84;100772.97;2330068;76;51560;-76
2022/08/20 11:43:19;;;;;;;13.70;7.47;;;;;;;25.82;56.80;100781.42;2330061;76;50203;-77
2022/08/20 11:46:22;;;;;;;20.15;7.92;;;;;;;25.83;56.66;100774.10;2307518;76;50066;-76
2022/08/20 11:49:24;;;;;;;20.48;8.25;;;;;;;25.85;56.44;100770.14;2307928;76;51568;-75
2022/08/20 11:52:27;;;;;;;15.08;7.80;;;;;;;25.85;56.37;100784.23;2330148;76;51456;-76
2022/08/20 11:55:30;;;;;;;16.27;7.42;;;;;;;25.87;56.17;100779.92;2305671;76;51938;-75
2022/08/20 11:58:32;;;;;;;9.23;6.97;;;;;;;25.87;55.97;100782.63;2284683;76;52294;-75
2022/08/20 12:01:34;;;;;;;18.00;7.85;;;;;;;25.87;55.90;100783.98;2297775;76;50134;-73
2022/08/20 12:04:37;;;;;;;11.10;6.47;;;;;;;25.89;55.89;100777.81;2324418;76;51558;-73
2022/08/20 12:07:39;;;;;;;16.60;7.78;;;;;;;25.90;55.60;100780.84;2307309;76;51509;-71
2022/08/20 12:10:41;;;;;;;14.18;6.95;;;;;;;25.90;55.50;100786.27;2280896;75;50889;-73
2022/08/20 12:13:43;;;;;;;12.82;6.95;;;;;;;25.92;55.62;100784.12;2294229;77;50844;-72
2022/08/20 12:16:46;;;;;;;15.65;6.92;;;;;;;25.92;55.59;100788.19;2269078;77;51431;-73
2022/08/20 12:19:48;;;;;;;11.90;6.30;;;;;;;25.93;55.61;100783.09;2243499;77;51504;-73
2022/08/20 12:22:51;;;;;;;14.43;6.05;;;;;;;25.93;55.57;100784.45;2269429;77;50312;-73
2022/08/20 12:25:53;;;;;;;9.18;6.60;;;;;;;25.93;55.43;100779.02;2315060;76;51601;-72
2022/08/20 12:28:55;;;;;;;7.58;5.90;;;;;;;25.94;55.34;100779.31;2307751;76;51575;-73
2022/08/20 12:31:58;;;;;;;9.63;6.15;;;;;;;25.93;55.28;100779.84;2307820;76;51490;-74
2022/08/20 12:35:00;;;;;;;9.73;6.10;;;;;;;25.95;55.04;100786.41;2304362;76;50373;-73
2022/08/20 12:38:06;;;;;;;5.95;5.40;;;;;;;25.96;54.84;100788.05;2229995;78;50239;-73
2022/08/20 12:41:08;;;;;;;8.25;5.60;;;;;;;25.96;54.54;100788.05;2283177;78;51579;-72
2022/08/20 12:44:10;;;;;;;11.93;6.10;;;;;;;25.98;54.02;100790.83;2250194;78;50462;-74
2022/08/20 12:47:18;;;;;;;7.95;6.22;;;;;;;25.96;54.44;100781.27;2282705;78;50370;-72
2022/08/20 12:50:23;;;;;;;13.32;6.40;;;;;;;25.95;54.54;100794.00;2282886;78;51599;-72
2022/08/20 12:53:25;;;;;;;13.65;5.95;;;;;;;25.97;54.45;100785.63;2283190;78;51531;-73
2022/08/20 12:56:27;;;;;;;11.70;5.62;;;;;;;25.98;54.14;100788.12;2282790;77;51552;-74
2022/08/20 12:59:29;;;;;;;16.20;5.97;;;;;;;25.98;53.92;100791.36;2228409;76;50954;-75
2022/08/20 13:02:31;;;;;;;9.15;6.08;;;;;;;25.98;53.87;100791.36;2282687;77;50718;-76
2022/08/20 13:05:34;;;;;;;9.15;5.83;;;;;;;25.95;53.86;100791.83;2287577;76;51593;-76
2022/08/20 13:08:36;;;;;;;12.98;5.70;;;;;;;25.94;53.98;100794.22;2307489;76;51781;-75
2022/08/20 13:11:38;;;;;;;8.33;6.00;;;;;;;25.94;53.91;100790.16;2294117;76;51511;-76
2022/08/20 13:14:40;;;;;;;10.20;5.17;;;;;;;25.93;53.85;100796.64;2282721;76;50305;-76
2022/08/20 13:17:43;;;;;;;8.55;5.53;;;;;;;25.93;53.70;100798.82;2287584;76;50960;-76
2022/08/20 13:20:45;;;;;;;5.42;4.75;;;;;;;25.93;53.57;100800.17;2304694;76;51565;-75
2022/08/20 13:23:47;;;;;;;7.58;5.53;;;;;;;25.93;53.48;100800.71;2319307;76;51594;-76
2022/08/20 13:26:50;;;;;;;8.83;5.05;;;;;;;25.93;53.33;100802.06;2307679;76;50747;-76
2022/08/20 13:29:54;;;;;;;6.60;4.80;;;;;;;25.93;53.09;100798.00;2329595;75;50819;-76
2022/08/20 13:32:56;;;;;;;7.53;4.97;;;;;;;25.92;53.17;100800.39;2283665;76;51617;-76
2022/08/20 13:35:58;;;;;;;6.37;4.80;;;;;;;25.91;53.27;100806.34;2282737;76;50809;-75
2022/08/20 13:39:01;;;;;;;8.53;5.00;;;;;;;25.90;53.22;100803.88;2282941;77;51514;-75
2022/08/20 13:42:03;;;;;;;5.33;4.70;;;;;;;25.92;53.05;100801.75;2257682;77;49536;-76
2022/08/20 13:45:06;;;;;;;9.10;5.20;;;;;;;25.93;53.07;100802.06;2257960;77;50327;-76
2022/08/20 13:48:09;;;;;;;8.95;5.12;;;;;;;25.94;52.98;100803.17;2302097;77;51491;-75
2022/08/20 13:51:11;;;;;;;13.20;5.60;;;;;;;25.94;52.91;100810.48;2283140;77;50272;-75
2022/08/20 13:54:13;;;;;;;10.45;5.17;;;;;;;25.93;53.28;100812.91;2283122;77;50726;-76
2022/08/20 13:57:16;;;;;;;32.20;6.28;;;;;;;25.93;53.41;100806.13;2233572;77;52082;-75
2022/08/20 14:00:21;;;;;;;26.97;6.10;;;;;;;25.97;53.57;100814.09;2302522;77;51539;-75
2022/08/20 14:03:23;;;;;;;43.77;7.43;;;;;;;25.99;53.64;100811.98;2340032;76;51548;-75
2022/08/20 14:06:25;;;;;;;42.00;7.15;;;;;;;26.01;53.72;100808.52;2311781;76;51482;-75